createdAt,value
2022-12-01T00:00:36.290Z,3.49
2022-12-01T00:03:07.086Z,3.53
2022-12-01T00:05:36.383Z,3.50
2022-12-01T00:08:05.829Z,3.50
2022-12-01T00:10:36.090Z,3.48
2022-12-01T00:13:08.281Z,3.46
2022-12-01T00:15:38.252Z,3.48
2022-12-01T00:18:08.727Z,3.45
2022-12-01T00:20:38.362Z,3.48
2022-12-01T00:23:08.763Z,3.49
2022-12-01T00:25:37.611Z,3.53
2022-12-01T00:28:06.701Z,3.52
2022-12-01T00:30:35.645Z,3.52
2022-12-01T00:33:11.297Z,3.52
2022-12-01T00:36:03.227Z,3.54
2022-12-01T00:38:34.173Z,3.57
2022-12-01T00:41:03.466Z,3.52
2022-12-01T00:43:32.977Z,3.52
2022-12-01T00:46:02.551Z,3.49
2022-12-01T00:48:32.401Z,3.50
2022-12-01T00:51:06.259Z,3.51
2022-12-01T00:53:35.811Z,3.48
2022-12-01T00:56:07.979Z,3.47
2022-12-01T00:58:36.768Z,3.45
2022-12-01T01:01:06.059Z,3.46
2022-12-01T01:03:35.546Z,3.48
2022-12-01T01:06:11.022Z,3.50
2022-12-01T01:08:40.426Z,3.51
2022-12-01T01:11:10.109Z,3.50
2022-12-01T01:13:39.843Z,3.45
2022-12-01T01:16:11.849Z,3.41
2022-12-01T01:18:47.363Z,3.41
2022-12-01T01:21:19.938Z,3.41
2022-12-01T01:23:52.535Z,3.35
2022-12-01T01:26:23.661Z,3.33
2022-12-01T01:28:53.520Z,3.35
2022-12-01T01:31:27.876Z,3.31
2022-12-01T01:33:57.403Z,3.27
2022-12-01T01:36:28.041Z,3.31
2022-12-01T01:38:57.232Z,3.26
2022-12-01T01:41:26.741Z,3.29
2022-12-01T01:43:58.293Z,3.28
2022-12-01T01:46:28.167Z,3.25
2022-12-01T01:49:00.335Z,3.25
2022-12-01T01:51:32.902Z,3.19
2022-12-01T01:54:04.612Z,3.25
2022-12-01T01:56:34.611Z,3.27
2022-12-01T01:59:04.854Z,3.26
2022-12-01T02:01:34.063Z,3.22
2022-12-01T02:04:03.255Z,3.16
2022-12-01T02:06:33.984Z,3.15
2022-12-01T02:09:02.963Z,3.11
2022-12-01T02:11:50.513Z,3.15
2022-12-01T02:14:41.623Z,3.20
2022-12-01T02:17:18.399Z,3.18
2022-12-01T02:20:46.071Z,3.23
2022-12-01T02:23:47.217Z,3.24
2022-12-01T02:26:34.543Z,3.22
2022-12-01T02:29:29.239Z,3.16
2022-12-01T02:32:02.923Z,3.19
2022-12-01T02:34:43.919Z,3.20
2022-12-01T02:37:23.749Z,3.21
2022-12-01T02:39:58.182Z,3.24
2022-12-01T02:42:52.269Z,3.20
2022-12-01T02:45:32.998Z,3.27
2022-12-01T02:48:04.430Z,3.18
2022-12-01T02:50:35.420Z,3.18
2022-12-01T02:53:06.022Z,3.19
2022-12-01T02:55:35.464Z,3.17
2022-12-01T02:58:14.294Z,3.19
2022-12-01T03:00:50.643Z,3.20
2022-12-01T03:03:33.582Z,3.26
2022-12-01T03:06:12.388Z,3.23
2022-12-01T03:08:47.798Z,3.27
2022-12-01T03:11:28.193Z,3.14
2022-12-01T03:14:10.518Z,3.08
2022-12-01T03:16:46.424Z,3.12
2022-12-01T03:19:21.716Z,3.14
2022-12-01T03:21:56.138Z,3.21
2022-12-01T03:24:29.771Z,3.23
2022-12-01T03:26:59.864Z,3.22
2022-12-01T03:29:34.076Z,3.16
2022-12-01T03:32:05.875Z,3.19
2022-12-01T03:34:38.878Z,3.16
2022-12-01T03:37:15.193Z,3.15
2022-12-01T03:39:45.311Z,3.16
2022-12-01T03:42:18.197Z,3.13
2022-12-01T03:44:50.469Z,3.07
2022-12-01T03:47:23.660Z,3.10
2022-12-01T03:49:56.546Z,3.13
2022-12-01T03:52:34.514Z,3.17
2022-12-01T03:55:12.094Z,3.16
2022-12-01T03:57:45.802Z,3.12
2022-12-01T04:00:17.098Z,3.05
2022-12-01T04:02:46.439Z,2.98
2022-12-01T04:05:20.014Z,3.08
2022-12-01T04:07:53.683Z,3.04
2022-12-01T04:10:23.218Z,3.05
2022-12-01T04:13:28.459Z,3.09
2022-12-01T04:16:03.622Z,3.14
2022-12-01T04:18:33.102Z,3.18
2022-12-01T04:21:03.378Z,3.13
2022-12-01T04:23:53.056Z,3.21
2022-12-01T04:26:28.040Z,3.24
2022-12-01T04:28:57.033Z,3.22
2022-12-01T04:31:26.414Z,3.19
2022-12-01T04:33:55.813Z,3.18
2022-12-01T04:36:26.474Z,3.13
2022-12-01T04:38:55.553Z,3.14
2022-12-01T04:41:24.975Z,3.22
2022-12-01T04:43:54.889Z,3.29
2022-12-01T04:46:24.676Z,3.21
2022-12-01T04:48:56.750Z,3.24
2022-12-01T04:51:27.711Z,3.24
2022-12-01T04:53:56.631Z,3.17
2022-12-01T04:56:25.700Z,3.10
2022-12-01T04:58:54.899Z,3.18
2022-12-01T05:01:24.118Z,3.18
2022-12-01T05:03:55.242Z,3.19
2022-12-01T05:06:26.999Z,3.16
2022-12-01T05:09:00.910Z,3.03
2022-12-01T05:11:31.338Z,3.03
2022-12-01T05:14:00.792Z,2.92
2022-12-01T05:16:31.929Z,2.94
2022-12-01T05:19:20.237Z,2.92
2022-12-01T05:21:51.178Z,2.98
2022-12-01T05:24:21.806Z,2.85
2022-12-01T05:26:50.471Z,2.81
2022-12-01T05:29:19.615Z,2.95
2022-12-01T05:31:48.577Z,2.98
2022-12-01T05:34:17.670Z,2.90
2022-12-01T05:36:46.368Z,2.88
2022-12-01T05:39:18.227Z,3.00
2022-12-01T05:41:46.916Z,3.06
2022-12-01T05:44:15.830Z,3.12
2022-12-01T05:46:44.801Z,3.15
2022-12-01T05:49:13.591Z,3.14
2022-12-01T05:51:44.021Z,3.12
2022-12-01T05:54:17.433Z,3.04
2022-12-01T05:56:51.119Z,3.16
2022-12-01T05:59:22.778Z,3.17
2022-12-01T06:01:51.894Z,3.21
2022-12-01T06:04:21.097Z,3.18
2022-12-01T06:06:50.112Z,3.16
2022-12-01T06:09:19.308Z,3.19
2022-12-01T06:11:52.254Z,3.19
2022-12-01T06:14:22.841Z,3.19
2022-12-01T06:16:51.878Z,3.18
2022-12-01T06:19:20.855Z,3.22
2022-12-01T06:21:49.970Z,3.18
2022-12-01T06:24:19.066Z,3.08
2022-12-01T06:26:51.225Z,3.11
2022-12-01T06:29:20.025Z,3.13
2022-12-01T06:31:50.280Z,3.10
2022-12-01T06:34:19.551Z,3.09
2022-12-01T06:36:48.731Z,3.17
2022-12-01T06:39:18.460Z,3.13
2022-12-01T06:41:48.076Z,3.12
2022-12-01T06:44:17.092Z,3.13
2022-12-01T06:46:45.748Z,3.13
2022-12-01T06:49:16.162Z,3.18
2022-12-01T06:51:45.378Z,3.18
2022-12-01T06:54:15.361Z,3.19
2022-12-01T06:56:44.698Z,3.15
2022-12-01T06:59:20.126Z,3.01
2022-12-01T07:01:49.706Z,3.08
2022-12-01T07:04:20.382Z,3.05
2022-12-01T07:06:51.405Z,3.07
2022-12-01T07:09:20.269Z,3.07
2022-12-01T07:11:49.086Z,3.12
2022-12-01T07:14:21.993Z,3.14
2022-12-01T07:16:50.962Z,3.16
2022-12-01T07:19:21.013Z,3.19
2022-12-01T07:21:49.895Z,3.16
2022-12-01T07:24:18.695Z,3.16
2022-12-01T07:26:48.399Z,3.18
2022-12-01T07:29:17.125Z,3.19
2022-12-01T07:31:45.872Z,3.21
2022-12-01T07:34:15.275Z,3.18
2022-12-01T07:36:45.266Z,3.03
2022-12-01T07:39:13.774Z,3.11
2022-12-01T07:41:42.542Z,3.11
2022-12-01T07:44:11.560Z,3.11
2022-12-01T07:46:40.558Z,3.10
2022-12-01T07:49:10.654Z,3.14
2022-12-01T07:51:39.567Z,3.19
2022-12-01T07:54:11.121Z,3.25
2022-12-01T07:56:40.113Z,3.28
2022-12-01T07:59:09.509Z,3.24
2022-12-01T08:01:44.059Z,3.21
2022-12-01T08:04:13.974Z,3.23
2022-12-01T08:06:42.951Z,3.20
2022-12-01T08:09:13.382Z,3.22
2022-12-01T08:11:42.275Z,3.17
2022-12-01T08:14:11.332Z,3.20
2022-12-01T08:16:40.312Z,3.13
2022-12-01T08:19:12.425Z,3.15
2022-12-01T08:21:41.378Z,3.13
2022-12-01T08:24:14.206Z,3.19
2022-12-01T08:26:45.353Z,3.26
2022-12-01T08:29:19.745Z,3.29
2022-12-01T08:31:49.282Z,3.29
2022-12-01T08:34:18.366Z,3.27
2022-12-01T08:36:47.476Z,3.31
2022-12-01T08:39:17.465Z,3.17
2022-12-01T08:41:46.565Z,3.23
2022-12-01T08:44:15.728Z,3.19
2022-12-01T08:46:44.792Z,3.24
2022-12-01T08:49:13.981Z,3.27
2022-12-01T08:51:42.765Z,3.33
2022-12-01T08:54:12.255Z,3.35
2022-12-01T08:56:44.791Z,3.42
2022-12-01T08:59:13.640Z,3.41
2022-12-01T09:01:53.597Z,3.42
2022-12-01T09:04:24.225Z,3.42
2022-12-01T09:06:54.583Z,3.47
2022-12-01T09:09:25.389Z,3.51
2022-12-01T09:11:55.964Z,3.56
2022-12-01T09:14:24.962Z,3.54
2022-12-01T09:16:53.529Z,3.57
2022-12-01T09:19:24.977Z,3.67
2022-12-01T09:21:54.189Z,3.76
2022-12-01T09:24:22.979Z,3.83
2022-12-01T09:26:51.552Z,3.70
2022-12-01T09:29:21.159Z,3.72
2022-12-01T09:31:50.062Z,3.83
2022-12-01T09:34:19.870Z,3.84
2022-12-01T09:36:49.241Z,3.90
2022-12-01T09:39:19.793Z,3.99
2022-12-01T09:41:50.144Z,3.82
2022-12-01T09:44:28.174Z,3.96
2022-12-01T09:46:59.370Z,4.00
2022-12-01T09:49:46.506Z,3.99
2022-12-01T09:52:17.097Z,4.08
2022-12-01T09:54:49.146Z,4.08
2022-12-01T09:57:25.408Z,4.07
2022-12-01T09:59:56.358Z,4.06
2022-12-01T10:02:33.029Z,4.07
2022-12-01T10:05:05.418Z,4.15
2022-12-01T10:07:38.769Z,4.35
2022-12-01T10:10:13.803Z,4.47
2022-12-01T10:12:44.073Z,4.58
2022-12-01T10:15:21.348Z,4.59
2022-12-01T10:17:57.214Z,4.55
2022-12-01T10:20:30.512Z,4.53
2022-12-01T10:23:10.256Z,4.47
2022-12-01T10:25:45.807Z,4.60
2022-12-01T10:28:30.585Z,4.55
2022-12-01T10:31:08.143Z,4.71
2022-12-01T10:33:43.353Z,4.72
2022-12-01T10:36:12.296Z,4.77
2022-12-01T10:38:42.635Z,4.81
2022-12-01T10:41:16.525Z,4.86
2022-12-01T10:43:48.894Z,4.89
2022-12-01T10:46:25.477Z,4.91
2022-12-01T10:48:56.109Z,4.98
2022-12-01T10:51:26.545Z,4.95
2022-12-01T10:54:00.434Z,4.97
2022-12-01T10:56:29.388Z,4.97
2022-12-01T10:59:00.099Z,4.86
2022-12-01T11:01:35.773Z,4.89
2022-12-01T11:04:08.688Z,4.97
2022-12-01T11:06:39.326Z,5.00
2022-12-01T11:09:09.671Z,4.92
2022-12-01T11:11:40.375Z,4.81
2022-12-01T11:14:20.668Z,4.89
2022-12-01T11:16:54.068Z,4.91
2022-12-01T11:19:29.852Z,4.99
2022-12-01T11:22:00.346Z,5.02
2022-12-01T11:24:41.273Z,5.03
2022-12-01T11:27:17.584Z,4.91
2022-12-01T11:29:48.818Z,4.95
2022-12-01T11:32:22.691Z,4.97
2022-12-01T11:34:54.909Z,5.04
2022-12-01T11:37:26.009Z,5.02
2022-12-01T11:39:57.058Z,4.89
2022-12-01T11:42:27.733Z,4.86
2022-12-01T11:44:58.162Z,4.95
2022-12-01T11:47:29.219Z,4.97
2022-12-01T11:50:00.088Z,4.88
2022-12-01T11:52:31.936Z,4.94
2022-12-01T11:55:09.759Z,4.90
2022-12-01T11:57:44.637Z,4.99
2022-12-01T12:00:17.631Z,4.89
2022-12-01T12:02:57.364Z,4.99
2022-12-01T12:05:50.277Z,4.99
2022-12-01T12:08:28.705Z,5.03
2022-12-01T12:11:03.325Z,5.02
2022-12-01T12:13:54.887Z,5.07
2022-12-01T12:16:33.496Z,4.97
2022-12-01T12:19:14.893Z,4.92
2022-12-01T12:22:04.072Z,4.97
2022-12-01T12:24:42.681Z,4.92
2022-12-01T12:27:18.122Z,5.01
2022-12-01T12:30:16.863Z,5.01
2022-12-01T12:33:09.770Z,5.04
2022-12-01T12:35:46.954Z,4.88
2022-12-01T12:38:35.097Z,4.92
2022-12-01T12:41:15.192Z,4.87
2022-12-01T12:43:49.987Z,4.87
2022-12-01T12:46:27.380Z,4.92
2022-12-01T12:49:21.692Z,4.90
2022-12-01T12:51:55.778Z,4.83
2022-12-01T12:54:28.354Z,4.84
2022-12-01T12:57:00.533Z,4.81
2022-12-01T12:59:32.898Z,4.68
2022-12-01T13:02:06.242Z,4.82
2022-12-01T13:04:39.696Z,4.79
2022-12-01T13:07:23.549Z,4.84
2022-12-01T13:09:59.332Z,4.84
2022-12-01T13:12:31.625Z,4.76
2022-12-01T13:15:05.244Z,4.81
2022-12-01T13:17:38.129Z,4.84
2022-12-01T13:20:08.765Z,4.90
2022-12-01T13:22:39.519Z,4.88
2022-12-01T13:25:09.229Z,4.94
2022-12-01T13:27:38.898Z,4.88
2022-12-01T13:30:18.575Z,4.96
2022-12-01T13:32:48.218Z,4.92
2022-12-01T13:35:27.875Z,4.98
2022-12-01T13:38:18.802Z,4.89
2022-12-01T13:40:48.042Z,4.92
2022-12-01T13:43:20.267Z,4.91
2022-12-01T13:45:50.333Z,4.92
2022-12-01T13:48:30.620Z,4.68
2022-12-01T13:51:02.360Z,4.43
2022-12-01T13:53:37.208Z,4.41
2022-12-01T13:56:23.385Z,4.45
2022-12-01T13:58:53.660Z,4.55
2022-12-01T14:01:44.603Z,4.49
2022-12-01T14:04:32.346Z,4.38
2022-12-01T14:07:22.306Z,4.48
2022-12-01T14:09:53.243Z,4.57
2022-12-01T14:12:24.962Z,4.51
2022-12-01T14:14:56.222Z,4.59
2022-12-01T14:17:27.827Z,4.53
2022-12-01T14:19:57.544Z,4.41
2022-12-01T14:22:39.040Z,4.57
2022-12-01T14:25:25.742Z,4.63
2022-12-01T14:27:56.376Z,4.61
2022-12-01T14:31:01.322Z,4.68
2022-12-01T14:33:54.064Z,4.70
2022-12-01T14:36:35.554Z,4.65
2022-12-01T14:39:12.012Z,4.70
2022-12-01T14:41:46.836Z,4.73
2022-12-01T14:44:23.649Z,4.73
2022-12-01T14:46:57.896Z,4.75
2022-12-01T14:49:29.697Z,4.43
2022-12-01T14:52:02.581Z,4.47
2022-12-01T14:54:33.221Z,4.57
2022-12-01T14:57:07.469Z,4.61
2022-12-01T14:59:38.589Z,4.55
2022-12-01T15:02:09.952Z,4.58
2022-12-01T15:05:09.239Z,4.64
2022-12-01T15:07:40.111Z,4.61
2022-12-01T15:10:18.741Z,4.55
2022-12-01T15:12:49.284Z,4.48
2022-12-01T15:15:23.966Z,4.54
2022-12-01T15:17:55.847Z,4.46
2022-12-01T15:20:36.755Z,4.47
2022-12-01T15:23:11.610Z,4.50
2022-12-01T15:25:43.572Z,4.53
2022-12-01T15:28:16.985Z,4.50
2022-12-01T15:30:48.850Z,4.57
2022-12-01T15:33:26.764Z,4.58
2022-12-01T15:35:56.663Z,4.59
2022-12-01T15:38:30.060Z,4.63
2022-12-01T15:41:27.892Z,4.57
2022-12-01T15:43:58.059Z,4.62
2022-12-01T15:46:31.150Z,4.66
2022-12-01T15:49:09.929Z,4.64
2022-12-01T15:51:38.864Z,4.69
2022-12-01T15:54:07.956Z,4.62
2022-12-01T15:56:38.121Z,4.55
2022-12-01T15:59:11.732Z,4.58
2022-12-01T16:01:41.376Z,4.52
2022-12-01T16:04:18.114Z,4.59
2022-12-01T16:06:56.172Z,4.54
2022-12-01T16:09:28.933Z,4.61
2022-12-01T16:12:23.656Z,4.55
2022-12-01T16:14:56.619Z,4.61
2022-12-01T16:17:25.839Z,4.63
2022-12-01T16:20:18.795Z,4.63
2022-12-01T16:22:48.011Z,4.63
2022-12-01T16:25:19.087Z,4.64
2022-12-01T16:27:53.025Z,4.62
2022-12-01T16:30:25.698Z,4.58
2022-12-01T16:33:02.917Z,4.58
2022-12-01T16:35:33.968Z,4.61
2022-12-01T16:38:13.295Z,4.62
2022-12-01T16:40:42.700Z,4.64
2022-12-01T16:43:14.818Z,4.53
2022-12-01T16:45:45.882Z,4.60
2022-12-01T16:48:14.595Z,4.55
2022-12-01T16:50:43.387Z,4.60
2022-12-01T16:53:14.116Z,4.66
2022-12-01T16:55:45.214Z,4.66
2022-12-01T16:58:13.797Z,4.66
2022-12-01T17:00:42.689Z,4.63
2022-12-01T17:03:14.932Z,4.68
2022-12-01T17:05:43.587Z,4.67
2022-12-01T17:08:12.383Z,4.72
2022-12-01T17:10:41.173Z,4.68
2022-12-01T17:13:10.476Z,4.60
2022-12-01T17:15:42.508Z,4.61
2022-12-01T17:18:13.376Z,4.55
2022-12-01T17:20:42.377Z,4.51
2022-12-01T17:23:11.573Z,4.51
2022-12-01T17:25:42.347Z,4.48
2022-12-01T17:28:11.314Z,4.43
2022-12-01T17:30:40.204Z,4.45
2022-12-01T17:33:09.501Z,4.55
2022-12-01T17:35:40.947Z,4.41
2022-12-01T17:38:09.772Z,4.34
2022-12-01T17:40:38.628Z,4.35
2022-12-01T17:43:32.608Z,4.28
2022-12-01T17:46:01.745Z,4.22
2022-12-01T17:48:31.065Z,4.35
2022-12-01T17:51:02.050Z,4.46
2022-12-01T17:53:31.250Z,4.54
2022-12-01T17:56:00.057Z,4.57
2022-12-01T17:58:29.136Z,4.53
2022-12-01T18:00:58.026Z,4.50
2022-12-01T18:03:26.814Z,4.57
2022-12-01T18:05:57.543Z,4.26
2022-12-01T18:08:31.663Z,4.44
2022-12-01T18:11:03.528Z,4.51
2022-12-01T18:13:32.256Z,4.50
2022-12-01T18:16:01.153Z,4.44
2022-12-01T18:18:30.304Z,4.46
2022-12-01T18:20:59.402Z,4.49
2022-12-01T18:23:29.715Z,4.56
2022-12-01T18:25:58.515Z,4.58
2022-12-01T18:28:27.509Z,4.62
2022-12-01T18:30:56.622Z,4.62
2022-12-01T18:33:27.034Z,4.66
2022-12-01T18:35:56.016Z,4.67
2022-12-01T18:38:25.802Z,4.67
2022-12-01T18:40:59.859Z,4.71
2022-12-01T18:43:29.870Z,4.70
2022-12-01T18:45:59.070Z,4.70
2022-12-01T18:48:28.360Z,4.70
2022-12-01T18:50:59.620Z,4.73
2022-12-01T18:53:29.845Z,4.70
2022-12-01T18:56:02.677Z,4.72
2022-12-01T18:58:31.907Z,4.73
2022-12-01T19:01:01.466Z,4.69
2022-12-01T19:03:31.024Z,4.71
2022-12-01T19:06:07.306Z,4.69
2022-12-01T19:08:36.199Z,4.70
2022-12-01T19:11:06.831Z,4.69
2022-12-01T19:13:36.337Z,4.72
2022-12-01T19:16:09.409Z,4.71
2022-12-01T19:18:38.523Z,4.65
2022-12-01T19:21:12.635Z,4.61
2022-12-01T19:23:41.631Z,4.64
2022-12-01T19:26:14.208Z,4.66
2022-12-01T19:28:46.583Z,4.47
2022-12-01T19:31:17.581Z,4.52
2022-12-01T19:33:46.879Z,4.62
2022-12-01T19:36:18.184Z,4.65
2022-12-01T19:38:47.576Z,4.68
2022-12-01T19:41:20.535Z,4.67
2022-12-01T19:43:49.524Z,4.64
2022-12-01T19:46:20.436Z,4.64
2022-12-01T19:48:54.081Z,4.54
2022-12-01T19:51:24.590Z,4.61
2022-12-01T19:53:54.239Z,4.61
2022-12-01T19:56:24.413Z,4.62
2022-12-01T19:58:53.559Z,4.65
2022-12-01T20:01:22.968Z,4.66
2022-12-01T20:03:53.494Z,4.70
2022-12-01T20:06:24.612Z,4.69
2022-12-01T20:08:54.338Z,4.68
2022-12-01T20:11:25.697Z,4.66
2022-12-01T20:13:54.727Z,4.57
2022-12-01T20:16:25.267Z,4.62
2022-12-01T20:18:54.818Z,4.64
2022-12-01T20:21:24.823Z,4.68
2022-12-01T20:23:58.137Z,4.68
2022-12-01T20:26:32.416Z,4.70
2022-12-01T20:29:03.005Z,4.70
2022-12-01T20:31:33.977Z,4.70
2022-12-01T20:34:05.743Z,4.69
2022-12-01T20:36:34.773Z,4.69
2022-12-01T20:39:03.870Z,4.69
2022-12-01T20:41:34.628Z,4.72
2022-12-01T20:44:07.296Z,4.51
2022-12-01T20:46:37.525Z,4.47
2022-12-01T20:49:07.133Z,4.52
2022-12-01T20:51:36.030Z,4.60
2022-12-01T20:56:57.463Z,4.60
2022-12-01T20:59:29.683Z,4.63
2022-12-01T21:01:58.684Z,4.67
2022-12-01T21:04:27.517Z,4.69
2022-12-01T21:06:57.127Z,4.70
2022-12-01T21:09:26.345Z,4.69
2022-12-01T21:12:12.830Z,4.68
2022-12-01T21:14:46.808Z,4.72
2022-12-01T21:17:25.660Z,4.74
2022-12-01T21:20:01.418Z,4.73
2022-12-01T21:22:30.271Z,4.75
2022-12-01T21:25:04.694Z,4.71
2022-12-01T21:27:34.265Z,4.72
2022-12-01T21:30:09.072Z,4.75
2022-12-01T21:32:43.656Z,4.68
2022-12-01T21:35:18.429Z,4.70
2022-12-01T21:37:48.035Z,4.69
2022-12-01T21:40:22.224Z,4.68
2022-12-01T21:42:52.270Z,4.70
2022-12-01T21:45:27.047Z,4.70
2022-12-01T21:47:59.882Z,4.68
2022-12-01T21:50:29.713Z,4.65
2022-12-01T21:52:59.510Z,4.70
2022-12-01T21:55:43.870Z,4.66
2022-12-01T21:58:28.522Z,4.66
2022-12-01T22:01:16.969Z,4.61
2022-12-01T22:03:46.893Z,4.25
2022-12-01T22:06:29.667Z,4.29
2022-12-01T22:09:02.186Z,4.38
2022-12-01T22:11:32.526Z,4.35
2022-12-01T22:14:11.700Z,4.44
2022-12-01T22:16:44.610Z,4.47
2022-12-01T22:19:27.162Z,4.48
2022-12-01T22:22:01.768Z,4.45
2022-12-01T22:24:41.113Z,4.49
2022-12-01T22:27:27.149Z,4.44
2022-12-01T22:29:59.149Z,4.48
2022-12-01T22:32:40.042Z,4.49
2022-12-01T22:35:27.036Z,4.54
2022-12-01T22:38:00.035Z,4.54
2022-12-01T22:40:45.013Z,4.53
2022-12-01T22:43:27.114Z,4.53
2022-12-01T22:46:04.660Z,4.54
2022-12-01T22:48:38.618Z,4.53
2022-12-01T22:51:39.053Z,4.56
2022-12-01T22:54:30.263Z,4.58
2022-12-01T22:57:27.008Z,4.53
2022-12-01T22:59:56.662Z,4.58
2022-12-01T23:02:30.070Z,4.60
2022-12-01T23:05:01.785Z,4.61
2022-12-01T23:07:33.384Z,4.62
2022-12-01T23:10:14.102Z,4.63
2022-12-01T23:12:43.607Z,4.56
2022-12-01T23:15:21.471Z,4.61
2022-12-01T23:17:51.266Z,4.56
2022-12-01T23:20:33.730Z,4.59
2022-12-01T23:23:04.658Z,4.60
2022-12-01T23:25:35.824Z,4.60
2022-12-01T23:28:08.521Z,4.60
2022-12-01T23:30:38.209Z,4.55
2022-12-01T23:33:17.877Z,4.55
2022-12-01T23:35:51.349Z,4.57
2022-12-01T23:38:21.266Z,4.56
2022-12-01T23:40:51.385Z,4.57
2022-12-01T23:43:22.696Z,4.55
2022-12-01T23:45:59.090Z,4.47
2022-12-01T23:48:35.678Z,4.31
2022-12-01T23:51:06.613Z,4.42
2022-12-01T23:53:44.911Z,4.41
2022-12-01T23:56:32.956Z,4.41
2022-12-01T23:59:02.884Z,4.24
